sensor_id;sensor_type;location;lat;lon;timestamp;temperature;humidity
50758;DHT22;36732;47.980;11.652;2023-04-19T00:00:38;12.00;67.80
50758;DHT22;36732;47.980;11.652;2023-04-19T00:03:05;12.00;67.80
50758;DHT22;36732;47.980;11.652;2023-04-19T00:05:31;12.00;67.90
50758;DHT22;36732;47.980;11.652;2023-04-19T00:07:57;12.00;67.80
50758;DHT22;36732;47.980;11.652;2023-04-19T00:10:24;12.00;67.90
50758;DHT22;36732;47.980;11.652;2023-04-19T00:12:50;12.00;67.90
50758;DHT22;36732;47.980;11.652;2023-04-19T00:15:16;12.00;67.90
50758;DHT22;36732;47.980;11.652;2023-04-19T00:17:42;12.00;68.00
50758;DHT22;36732;47.980;11.652;2023-04-19T00:20:08;12.00;68.00
50758;DHT22;36732;47.980;11.652;2023-04-19T00:22:34;12.00;68.00
50758;DHT22;36732;47.980;11.652;2023-04-19T00:25:00;11.90;68.00
50758;DHT22;36732;47.980;11.652;2023-04-19T00:27:26;12.00;68.10
50758;DHT22;36732;47.980;11.652;2023-04-19T00:29:52;11.90;68.10
50758;DHT22;36732;47.980;11.652;2023-04-19T00:32:17;11.90;68.10
50758;DHT22;36732;47.980;11.652;2023-04-19T00:34:43;11.90;68.10
50758;DHT22;36732;47.980;11.652;2023-04-19T00:37:09;11.90;68.10
50758;DHT22;36732;47.980;11.652;2023-04-19T00:39:36;11.90;68.10
50758;DHT22;36732;47.980;11.652;2023-04-19T00:42:01;11.90;68.10
50758;DHT22;36732;47.980;11.652;2023-04-19T00:44:27;11.90;68.10
50758;DHT22;36732;47.980;11.652;2023-04-19T00:46:55;11.90;68.20
50758;DHT22;36732;47.980;11.652;2023-04-19T00:49:22;11.90;68.10
50758;DHT22;36732;47.980;11.652;2023-04-19T00:51:49;11.90;68.20
50758;DHT22;36732;47.980;11.652;2023-04-19T00:54:16;11.90;68.20
50758;DHT22;36732;47.980;11.652;2023-04-19T00:56:43;11.90;68.20
50758;DHT22;36732;47.980;11.652;2023-04-19T00:59:10;11.90;68.20
50758;DHT22;36732;47.980;11.652;2023-04-19T01:01:37;11.90;68.30
50758;DHT22;36732;47.980;11.652;2023-04-19T01:04:04;11.90;68.30
50758;DHT22;36732;47.980;11.652;2023-04-19T01:06:30;11.90;68.40
50758;DHT22;36732;47.980;11.652;2023-04-19T01:08:56;11.90;68.30
50758;DHT22;36732;47.980;11.652;2023-04-19T01:11:23;11.90;68.40
50758;DHT22;36732;47.980;11.652;2023-04-19T01:13:49;11.90;68.50
50758;DHT22;36732;47.980;11.652;2023-04-19T01:16:15;11.90;68.40
50758;DHT22;36732;47.980;11.652;2023-04-19T01:18:41;11.90;68.40
50758;DHT22;36732;47.980;11.652;2023-04-19T01:21:07;11.90;68.40
50758;DHT22;36732;47.980;11.652;2023-04-19T01:23:34;11.80;68.30
50758;DHT22;36732;47.980;11.652;2023-04-19T01:26:01;11.80;68.40
50758;DHT22;36732;47.980;11.652;2023-04-19T01:28:27;11.80;68.40
50758;DHT22;36732;47.980;11.652;2023-04-19T01:30:53;11.80;68.40
50758;DHT22;36732;47.980;11.652;2023-04-19T01:36:40;11.80;68.60
50758;DHT22;36732;47.980;11.652;2023-04-19T01:39:06;11.80;68.20
50758;DHT22;36732;47.980;11.652;2023-04-19T01:41:32;11.80;68.30
50758;DHT22;36732;47.980;11.652;2023-04-19T01:43:57;11.80;68.40
50758;DHT22;36732;47.980;11.652;2023-04-19T01:46:25;11.80;68.40
50758;DHT22;36732;47.980;11.652;2023-04-19T01:48:50;11.80;68.40
50758;DHT22;36732;47.980;11.652;2023-04-19T01:51:16;11.80;68.40
50758;DHT22;36732;47.980;11.652;2023-04-19T01:53:42;11.80;68.40
50758;DHT22;36732;47.980;11.652;2023-04-19T01:56:08;11.70;68.40
50758;DHT22;36732;47.980;11.652;2023-04-19T01:58:33;11.80;68.40
50758;DHT22;36732;47.980;11.652;2023-04-19T02:00:59;11.80;68.50
50758;DHT22;36732;47.980;11.652;2023-04-19T02:03:25;11.70;68.40
50758;DHT22;36732;47.980;11.652;2023-04-19T02:05:51;11.70;68.40
50758;DHT22;36732;47.980;11.652;2023-04-19T02:08:16;11.70;69.10
50758;DHT22;36732;47.980;11.652;2023-04-19T02:10:42;11.70;68.50
50758;DHT22;36732;47.980;11.652;2023-04-19T02:13:08;11.80;68.50
50758;DHT22;36732;47.980;11.652;2023-04-19T02:15:36;11.70;68.40
50758;DHT22;36732;47.980;11.652;2023-04-19T02:18:01;11.70;68.50
50758;DHT22;36732;47.980;11.652;2023-04-19T02:20:30;11.70;68.40
50758;DHT22;36732;47.980;11.652;2023-04-19T02:22:56;11.70;68.40
50758;DHT22;36732;47.980;11.652;2023-04-19T02:25:22;11.70;68.40
50758;DHT22;36732;47.980;11.652;2023-04-19T02:27:48;11.70;68.50
50758;DHT22;36732;47.980;11.652;2023-04-19T02:30:13;11.70;68.40
50758;DHT22;36732;47.980;11.652;2023-04-19T02:32:39;11.70;68.40
50758;DHT22;36732;47.980;11.652;2023-04-19T02:35:05;11.70;68.40
50758;DHT22;36732;47.980;11.652;2023-04-19T02:37:31;11.70;68.50
50758;DHT22;36732;47.980;11.652;2023-04-19T02:39:57;11.70;68.50
50758;DHT22;36732;47.980;11.652;2023-04-19T02:42:23;11.70;68.50
50758;DHT22;36732;47.980;11.652;2023-04-19T02:44:48;11.70;68.50
50758;DHT22;36732;47.980;11.652;2023-04-19T02:47:14;11.70;68.50
50758;DHT22;36732;47.980;11.652;2023-04-19T02:49:40;11.70;69.10
50758;DHT22;36732;47.980;11.652;2023-04-19T02:52:07;11.70;68.50
50758;DHT22;36732;47.980;11.652;2023-04-19T02:54:33;11.70;68.60
50758;DHT22;36732;47.980;11.652;2023-04-19T02:56:59;11.70;68.60
50758;DHT22;36732;47.980;11.652;2023-04-19T02:59:25;11.70;68.60
50758;DHT22;36732;47.980;11.652;2023-04-19T03:01:51;11.70;68.70
50758;DHT22;36732;47.980;11.652;2023-04-19T03:04:17;11.70;68.70
50758;DHT22;36732;47.980;11.652;2023-04-19T03:06:43;11.70;68.70
50758;DHT22;36732;47.980;11.652;2023-04-19T03:09:09;11.70;68.70
50758;DHT22;36732;47.980;11.652;2023-04-19T03:11:34;11.70;68.80
50758;DHT22;36732;47.980;11.652;2023-04-19T03:14:02;11.70;68.80
50758;DHT22;36732;47.980;11.652;2023-04-19T03:16:28;11.70;68.80
50758;DHT22;36732;47.980;11.652;2023-04-19T03:18:54;11.70;68.80
50758;DHT22;36732;47.980;11.652;2023-04-19T03:21:20;11.70;68.90
50758;DHT22;36732;47.980;11.652;2023-04-19T03:23:46;11.70;69.00
50758;DHT22;36732;47.980;11.652;2023-04-19T03:26:11;11.70;68.90
50758;DHT22;36732;47.980;11.652;2023-04-19T03:28:37;11.70;69.00
50758;DHT22;36732;47.980;11.652;2023-04-19T03:31:03;11.70;69.10
50758;DHT22;36732;47.980;11.652;2023-04-19T03:33:28;11.60;69.10
50758;DHT22;36732;47.980;11.652;2023-04-19T03:35:54;11.60;69.10
50758;DHT22;36732;47.980;11.652;2023-04-19T03:38:20;11.60;69.10
50758;DHT22;36732;47.980;11.652;2023-04-19T03:40:47;11.60;69.10
50758;DHT22;36732;47.980;11.652;2023-04-19T03:43:12;11.60;69.80
50758;DHT22;36732;47.980;11.652;2023-04-19T03:45:38;11.60;69.20
50758;DHT22;36732;47.980;11.652;2023-04-19T03:48:04;11.60;69.20
50758;DHT22;36732;47.980;11.652;2023-04-19T03:50:30;11.60;69.20
50758;DHT22;36732;47.980;11.652;2023-04-19T03:52:55;11.60;69.30
50758;DHT22;36732;47.980;11.652;2023-04-19T03:55:21;11.60;69.30
50758;DHT22;36732;47.980;11.652;2023-04-19T03:57:47;11.60;69.30
50758;DHT22;36732;47.980;11.652;2023-04-19T04:00:13;11.60;69.40
50758;DHT22;36732;47.980;11.652;2023-04-19T04:02:39;11.60;69.40
50758;DHT22;36732;47.980;11.652;2023-04-19T04:05:05;11.60;69.50
50758;DHT22;36732;47.980;11.652;2023-04-19T04:07:31;11.60;69.40
50758;DHT22;36732;47.980;11.652;2023-04-19T04:09:57;11.60;69.40
50758;DHT22;36732;47.980;11.652;2023-04-19T04:12:23;11.60;69.40
50758;DHT22;36732;47.980;11.652;2023-04-19T04:14:49;11.60;69.40
50758;DHT22;36732;47.980;11.652;2023-04-19T04:17:14;11.60;69.50
50758;DHT22;36732;47.980;11.652;2023-04-19T04:19:40;11.60;69.50
50758;DHT22;36732;47.980;11.652;2023-04-19T04:22:06;11.60;69.50
50758;DHT22;36732;47.980;11.652;2023-04-19T04:24:37;11.60;69.50
50758;DHT22;36732;47.980;11.652;2023-04-19T04:27:06;11.60;69.70
50758;DHT22;36732;47.980;11.652;2023-04-19T04:29:35;11.60;69.60
50758;DHT22;36732;47.980;11.652;2023-04-19T04:32:02;11.60;69.60
50758;DHT22;36732;47.980;11.652;2023-04-19T04:34:28;11.60;69.60
50758;DHT22;36732;47.980;11.652;2023-04-19T04:36:55;11.60;69.70
50758;DHT22;36732;47.980;11.652;2023-04-19T04:39:22;11.60;69.70
50758;DHT22;36732;47.980;11.652;2023-04-19T04:41:47;11.60;69.70
50758;DHT22;36732;47.980;11.652;2023-04-19T04:44:14;11.60;69.70
50758;DHT22;36732;47.980;11.652;2023-04-19T04:46:40;11.60;69.50
50758;DHT22;36732;47.980;11.652;2023-04-19T04:49:06;11.60;69.60
50758;DHT22;36732;47.980;11.652;2023-04-19T04:51:31;11.60;69.60
50758;DHT22;36732;47.980;11.652;2023-04-19T04:53:57;11.60;69.70
50758;DHT22;36732;47.980;11.652;2023-04-19T04:56:23;11.60;69.70
50758;DHT22;36732;47.980;11.652;2023-04-19T04:58:50;11.60;69.70
50758;DHT22;36732;47.980;11.652;2023-04-19T05:01:16;11.60;69.70
50758;DHT22;36732;47.980;11.652;2023-04-19T05:03:44;11.60;69.70
50758;DHT22;36732;47.980;11.652;2023-04-19T05:06:10;11.60;69.80
50758;DHT22;36732;47.980;11.652;2023-04-19T05:08:35;11.50;69.80
50758;DHT22;36732;47.980;11.652;2023-04-19T05:11:01;11.60;69.90
50758;DHT22;36732;47.980;11.652;2023-04-19T05:13:27;11.60;69.90
50758;DHT22;36732;47.980;11.652;2023-04-19T05:15:52;11.50;69.90
50758;DHT22;36732;47.980;11.652;2023-04-19T05:18:18;11.60;69.90
50758;DHT22;36732;47.980;11.652;2023-04-19T05:20:44;11.60;70.00
50758;DHT22;36732;47.980;11.652;2023-04-19T05:23:11;11.60;70.00
50758;DHT22;36732;47.980;11.652;2023-04-19T05:25:37;11.60;70.00
50758;DHT22;36732;47.980;11.652;2023-04-19T05:28:03;11.50;70.00
50758;DHT22;36732;47.980;11.652;2023-04-19T05:30:28;11.50;70.00
50758;DHT22;36732;47.980;11.652;2023-04-19T05:32:55;11.50;70.00
50758;DHT22;36732;47.980;11.652;2023-04-19T05:35:21;11.60;70.20
50758;DHT22;36732;47.980;11.652;2023-04-19T05:37:46;11.60;70.20
50758;DHT22;36732;47.980;11.652;2023-04-19T05:40:12;11.60;70.20
50758;DHT22;36732;47.980;11.652;2023-04-19T05:42:38;11.60;70.10
50758;DHT22;36732;47.980;11.652;2023-04-19T05:45:04;11.60;70.20
50758;DHT22;36732;47.980;11.652;2023-04-19T05:47:31;11.60;70.10
50758;DHT22;36732;47.980;11.652;2023-04-19T05:49:57;11.60;70.10
50758;DHT22;36732;47.980;11.652;2023-04-19T05:52:23;11.60;70.10
50758;DHT22;36732;47.980;11.652;2023-04-19T05:54:48;11.60;70.10
50758;DHT22;36732;47.980;11.652;2023-04-19T05:57:14;11.60;70.10
50758;DHT22;36732;47.980;11.652;2023-04-19T05:59:40;11.60;70.10
50758;DHT22;36732;47.980;11.652;2023-04-19T06:02:06;11.60;70.10
50758;DHT22;36732;47.980;11.652;2023-04-19T06:04:32;11.50;70.10
50758;DHT22;36732;47.980;11.652;2023-04-19T06:06:58;11.50;70.30
50758;DHT22;36732;47.980;11.652;2023-04-19T06:09:23;11.50;70.30
50758;DHT22;36732;47.980;11.652;2023-04-19T06:11:49;11.50;70.30
50758;DHT22;36732;47.980;11.652;2023-04-19T06:14:15;11.50;70.20
50758;DHT22;36732;47.980;11.652;2023-04-19T06:16:41;11.50;70.20
50758;DHT22;36732;47.980;11.652;2023-04-19T06:19:06;11.50;70.20
50758;DHT22;36732;47.980;11.652;2023-04-19T06:21:33;11.50;70.30
50758;DHT22;36732;47.980;11.652;2023-04-19T06:23:59;11.50;70.30
50758;DHT22;36732;47.980;11.652;2023-04-19T06:26:25;11.50;70.50
50758;DHT22;36732;47.980;11.652;2023-04-19T06:28:51;11.50;70.60
50758;DHT22;36732;47.980;11.652;2023-04-19T06:31:16;11.50;70.60
50758;DHT22;36732;47.980;11.652;2023-04-19T06:33:42;11.50;70.50
50758;DHT22;36732;47.980;11.652;2023-04-19T06:36:08;11.50;70.50
50758;DHT22;36732;47.980;11.652;2023-04-19T06:38:35;11.50;70.50
50758;DHT22;36732;47.980;11.652;2023-04-19T06:41:03;11.50;70.50
50758;DHT22;36732;47.980;11.652;2023-04-19T06:43:29;11.50;70.50
50758;DHT22;36732;47.980;11.652;2023-04-19T06:45:59;11.50;70.50
50758;DHT22;36732;47.980;11.652;2023-04-19T06:48:24;11.50;70.60
50758;DHT22;36732;47.980;11.652;2023-04-19T06:50:50;11.50;70.50
50758;DHT22;36732;47.980;11.652;2023-04-19T06:53:16;11.50;70.50
50758;DHT22;36732;47.980;11.652;2023-04-19T06:55:42;11.40;70.40
50758;DHT22;36732;47.980;11.652;2023-04-19T06:58:08;11.40;70.40
50758;DHT22;36732;47.980;11.652;2023-04-19T07:00:35;11.40;70.40
50758;DHT22;36732;47.980;11.652;2023-04-19T07:03:01;11.40;70.50
50758;DHT22;36732;47.980;11.652;2023-04-19T07:05:28;11.40;70.60
50758;DHT22;36732;47.980;11.652;2023-04-19T07:07:54;11.40;70.60
50758;DHT22;36732;47.980;11.652;2023-04-19T07:10:20;11.40;70.50
50758;DHT22;36732;47.980;11.652;2023-04-19T07:12:46;11.40;70.70
50758;DHT22;36732;47.980;11.652;2023-04-19T07:15:11;11.40;70.60
50758;DHT22;36732;47.980;11.652;2023-04-19T07:17:37;11.40;70.60
50758;DHT22;36732;47.980;11.652;2023-04-19T07:20:05;11.40;70.70
50758;DHT22;36732;47.980;11.652;2023-04-19T07:22:32;11.40;70.50
50758;DHT22;36732;47.980;11.652;2023-04-19T07:24:57;11.40;70.60
50758;DHT22;36732;47.980;11.652;2023-04-19T07:27:24;11.40;70.60
50758;DHT22;36732;47.980;11.652;2023-04-19T07:29:50;11.40;70.70
50758;DHT22;36732;47.980;11.652;2023-04-19T07:32:16;11.40;70.70
50758;DHT22;36732;47.980;11.652;2023-04-19T07:34:42;11.40;70.60
50758;DHT22;36732;47.980;11.652;2023-04-19T07:37:09;11.40;70.60
50758;DHT22;36732;47.980;11.652;2023-04-19T07:39:35;11.40;70.70
50758;DHT22;36732;47.980;11.652;2023-04-19T07:42:01;11.40;70.70
50758;DHT22;36732;47.980;11.652;2023-04-19T07:44:26;11.40;70.60
50758;DHT22;36732;47.980;11.652;2023-04-19T07:46:53;11.40;70.80
50758;DHT22;36732;47.980;11.652;2023-04-19T07:49:19;11.40;70.80
50758;DHT22;36732;47.980;11.652;2023-04-19T07:51:45;11.40;70.70
50758;DHT22;36732;47.980;11.652;2023-04-19T07:54:11;11.40;70.80
50758;DHT22;36732;47.980;11.652;2023-04-19T07:56:36;11.40;70.80
50758;DHT22;36732;47.980;11.652;2023-04-19T07:59:02;11.40;70.90
50758;DHT22;36732;47.980;11.652;2023-04-19T08:01:28;11.40;70.90
50758;DHT22;36732;47.980;11.652;2023-04-19T08:03:54;11.40;70.90
50758;DHT22;36732;47.980;11.652;2023-04-19T08:06:20;11.40;70.80
50758;DHT22;36732;47.980;11.652;2023-04-19T08:08:46;11.50;70.80
50758;DHT22;36732;47.980;11.652;2023-04-19T08:11:12;11.40;70.60
50758;DHT22;36732;47.980;11.652;2023-04-19T08:13:38;11.40;70.70
50758;DHT22;36732;47.980;11.652;2023-04-19T08:16:04;11.40;70.80
50758;DHT22;36732;47.980;11.652;2023-04-19T08:18:31;11.40;70.80
50758;DHT22;36732;47.980;11.652;2023-04-19T08:20:58;11.40;70.60
50758;DHT22;36732;47.980;11.652;2023-04-19T08:23:23;11.40;70.60
50758;DHT22;36732;47.980;11.652;2023-04-19T08:25:50;11.40;70.70
50758;DHT22;36732;47.980;11.652;2023-04-19T08:28:17;11.50;70.80
50758;DHT22;36732;47.980;11.652;2023-04-19T08:30:43;11.50;70.90
50758;DHT22;36732;47.980;11.652;2023-04-19T08:33:09;11.50;70.90
50758;DHT22;36732;47.980;11.652;2023-04-19T08:35:38;11.50;70.80
50758;DHT22;36732;47.980;11.652;2023-04-19T08:38:07;11.50;70.90
50758;DHT22;36732;47.980;11.652;2023-04-19T08:40:34;11.50;70.90
50758;DHT22;36732;47.980;11.652;2023-04-19T08:43:04;11.50;71.00
50758;DHT22;36732;47.980;11.652;2023-04-19T08:45:31;11.50;71.00
50758;DHT22;36732;47.980;11.652;2023-04-19T08:47:57;11.60;71.00
50758;DHT22;36732;47.980;11.652;2023-04-19T08:50:24;11.60;71.10
50758;DHT22;36732;47.980;11.652;2023-04-19T08:52:50;11.60;71.10
50758;DHT22;36732;47.980;11.652;2023-04-19T08:55:16;11.60;71.30
50758;DHT22;36732;47.980;11.652;2023-04-19T08:57:42;11.60;71.20
50758;DHT22;36732;47.980;11.652;2023-04-19T09:00:08;11.60;71.10
50758;DHT22;36732;47.980;11.652;2023-04-19T09:02:51;11.60;71.10
50758;DHT22;36732;47.980;11.652;2023-04-19T09:05:20;11.60;71.20
50758;DHT22;36732;47.980;11.652;2023-04-19T09:07:46;11.60;71.10
50758;DHT22;36732;47.980;11.652;2023-04-19T09:10:15;11.60;71.10
50758;DHT22;36732;47.980;11.652;2023-04-19T09:12:42;11.60;71.10
50758;DHT22;36732;47.980;11.652;2023-04-19T09:15:09;11.70;71.10
50758;DHT22;36732;47.980;11.652;2023-04-19T09:17:39;11.70;71.10
50758;DHT22;36732;47.980;11.652;2023-04-19T09:20:05;11.70;71.10
50758;DHT22;36732;47.980;11.652;2023-04-19T09:22:32;11.70;71.00
50758;DHT22;36732;47.980;11.652;2023-04-19T09:24:59;11.70;71.00
50758;DHT22;36732;47.980;11.652;2023-04-19T09:27:34;11.70;70.90
50758;DHT22;36732;47.980;11.652;2023-04-19T09:30:02;11.70;71.00
50758;DHT22;36732;47.980;11.652;2023-04-19T09:32:47;11.70;70.90
50758;DHT22;36732;47.980;11.652;2023-04-19T09:35:13;11.70;71.30
50758;DHT22;36732;47.980;11.652;2023-04-19T09:37:38;11.80;71.20
50758;DHT22;36732;47.980;11.652;2023-04-19T09:40:24;11.80;71.10
50758;DHT22;36732;47.980;11.652;2023-04-19T09:42:52;11.80;71.20
50758;DHT22;36732;47.980;11.652;2023-04-19T09:45:18;11.80;71.10
50758;DHT22;36732;47.980;11.652;2023-04-19T09:47:44;11.80;71.20
50758;DHT22;36732;47.980;11.652;2023-04-19T09:50:12;11.80;71.20
50758;DHT22;36732;47.980;11.652;2023-04-19T09:52:37;11.80;71.20
50758;DHT22;36732;47.980;11.652;2023-04-19T09:55:05;11.80;71.20
50758;DHT22;36732;47.980;11.652;2023-04-19T09:57:32;11.80;71.20
50758;DHT22;36732;47.980;11.652;2023-04-19T09:59:59;11.80;71.20
50758;DHT22;36732;47.980;11.652;2023-04-19T10:02:29;11.80;71.20
50758;DHT22;36732;47.980;11.652;2023-04-19T10:04:57;11.80;71.20
50758;DHT22;36732;47.980;11.652;2023-04-19T10:07:24;11.80;71.20
50758;DHT22;36732;47.980;11.652;2023-04-19T10:09:50;11.80;71.20
50758;DHT22;36732;47.980;11.652;2023-04-19T10:12:23;11.90;71.20
50758;DHT22;36732;47.980;11.652;2023-04-19T10:14:54;11.90;71.30
50758;DHT22;36732;47.980;11.652;2023-04-19T10:17:21;11.90;71.20
50758;DHT22;36732;47.980;11.652;2023-04-19T10:20:19;11.90;71.20
50758;DHT22;36732;47.980;11.652;2023-04-19T10:22:36;11.90;71.30
50758;DHT22;36732;47.980;11.652;2023-04-19T10:25:13;11.90;71.30
50758;DHT22;36732;47.980;11.652;2023-04-19T10:27:43;11.90;71.60
50758;DHT22;36732;47.980;11.652;2023-04-19T10:30:18;11.90;71.30
50758;DHT22;36732;47.980;11.652;2023-04-19T10:32:50;12.00;71.30
50758;DHT22;36732;47.980;11.652;2023-04-19T10:35:19;12.00;71.30
50758;DHT22;36732;47.980;11.652;2023-04-19T10:38:13;12.00;71.10
50758;DHT22;36732;47.980;11.652;2023-04-19T10:40:53;12.00;71.30
50758;DHT22;36732;47.980;11.652;2023-04-19T10:43:32;12.00;71.40
50758;DHT22;36732;47.980;11.652;2023-04-19T10:46:48;12.00;71.40
50758;DHT22;36732;47.980;11.652;2023-04-19T10:49:00;12.10;71.70
50758;DHT22;36732;47.980;11.652;2023-04-19T10:51:39;12.10;71.50
50758;DHT22;36732;47.980;11.652;2023-04-19T10:54:32;12.10;71.60
50758;DHT22;36732;47.980;11.652;2023-04-19T10:57:08;12.10;72.10
50758;DHT22;36732;47.980;11.652;2023-04-19T10:59:38;12.10;72.10
50758;DHT22;36732;47.980;11.652;2023-04-19T11:07:15;12.20;72.00
50758;DHT22;36732;47.980;11.652;2023-04-19T11:09:48;12.20;72.20
50758;DHT22;36732;47.980;11.652;2023-04-19T11:12:17;12.20;72.10
50758;DHT22;36732;47.980;11.652;2023-04-19T11:14:46;12.30;72.10
50758;DHT22;36732;47.980;11.652;2023-04-19T11:20:07;12.30;71.90
50758;DHT22;36732;47.980;11.652;2023-04-19T11:22:38;12.30;71.90
50758;DHT22;36732;47.980;11.652;2023-04-19T11:27:39;12.30;72.00
50758;DHT22;36732;47.980;11.652;2023-04-19T11:32:51;12.30;72.10
50758;DHT22;36732;47.980;11.652;2023-04-19T11:35:27;12.30;72.30
50758;DHT22;36732;47.980;11.652;2023-04-19T11:37:55;12.30;72.90
50758;DHT22;36732;47.980;11.652;2023-04-19T11:40:22;12.40;72.30
50758;DHT22;36732;47.980;11.652;2023-04-19T11:42:54;12.40;72.30
50758;DHT22;36732;47.980;11.652;2023-04-19T11:45:29;12.40;72.50
50758;DHT22;36732;47.980;11.652;2023-04-19T11:47:56;12.40;72.30
50758;DHT22;36732;47.980;11.652;2023-04-19T11:50:52;12.40;72.30
50758;DHT22;36732;47.980;11.652;2023-04-19T11:53:23;12.50;72.40
50758;DHT22;36732;47.980;11.652;2023-04-19T11:55:52;12.50;72.00
50758;DHT22;36732;47.980;11.652;2023-04-19T11:58:30;12.50;71.80
50758;DHT22;36732;47.980;11.652;2023-04-19T12:01:27;12.50;71.00
50758;DHT22;36732;47.980;11.652;2023-04-19T12:03:54;12.50;70.90
50758;DHT22;36732;47.980;11.652;2023-04-19T12:06:24;12.50;70.90
50758;DHT22;36732;47.980;11.652;2023-04-19T12:08:55;12.50;70.90
50758;DHT22;36732;47.980;11.652;2023-04-19T12:11:23;12.50;71.00
50758;DHT22;36732;47.980;11.652;2023-04-19T12:14:13;12.40;70.90
50758;DHT22;36732;47.980;11.652;2023-04-19T12:16:44;12.40;71.00
50758;DHT22;36732;47.980;11.652;2023-04-19T12:19:16;12.40;70.90
50758;DHT22;36732;47.980;11.652;2023-04-19T12:21:45;12.40;71.00
50758;DHT22;36732;47.980;11.652;2023-04-19T12:24:14;12.40;71.00
50758;DHT22;36732;47.980;11.652;2023-04-19T12:26:54;12.40;71.30
50758;DHT22;36732;47.980;11.652;2023-04-19T12:29:25;12.40;71.30
50758;DHT22;36732;47.980;11.652;2023-04-19T12:31:51;12.30;71.20
50758;DHT22;36732;47.980;11.652;2023-04-19T12:34:17;12.30;70.70
50758;DHT22;36732;47.980;11.652;2023-04-19T12:36:42;12.30;70.30
50758;DHT22;36732;47.980;11.652;2023-04-19T12:39:08;12.30;70.10
50758;DHT22;36732;47.980;11.652;2023-04-19T12:41:34;12.30;70.20
50758;DHT22;36732;47.980;11.652;2023-04-19T12:43:59;12.20;70.10
50758;DHT22;36732;47.980;11.652;2023-04-19T12:46:25;12.20;70.20
50758;DHT22;36732;47.980;11.652;2023-04-19T12:48:51;12.20;70.20
50758;DHT22;36732;47.980;11.652;2023-04-19T12:51:16;12.20;70.20
50758;DHT22;36732;47.980;11.652;2023-04-19T12:53:47;12.20;70.10
50758;DHT22;36732;47.980;11.652;2023-04-19T12:56:13;12.10;70.00
50758;DHT22;36732;47.980;11.652;2023-04-19T12:58:40;12.10;69.70
50758;DHT22;36732;47.980;11.652;2023-04-19T13:01:06;12.10;69.70
50758;DHT22;36732;47.980;11.652;2023-04-19T13:03:32;12.10;69.70
50758;DHT22;36732;47.980;11.652;2023-04-19T13:06:01;12.10;69.70
50758;DHT22;36732;47.980;11.652;2023-04-19T13:08:27;12.10;69.90
50758;DHT22;36732;47.980;11.652;2023-04-19T13:10:54;12.00;69.90
50758;DHT22;36732;47.980;11.652;2023-04-19T13:13:20;12.00;70.00
50758;DHT22;36732;47.980;11.652;2023-04-19T13:15:46;12.00;70.10
50758;DHT22;36732;47.980;11.652;2023-04-19T13:18:12;12.00;70.10
50758;DHT22;36732;47.980;11.652;2023-04-19T13:20:37;12.00;70.00
50758;DHT22;36732;47.980;11.652;2023-04-19T13:23:03;12.00;69.90
50758;DHT22;36732;47.980;11.652;2023-04-19T13:25:29;12.00;69.80
50758;DHT22;36732;47.980;11.652;2023-04-19T13:27:54;12.00;69.70
50758;DHT22;36732;47.980;11.652;2023-04-19T13:30:20;12.00;69.90
50758;DHT22;36732;47.980;11.652;2023-04-19T13:32:46;11.90;69.80
50758;DHT22;36732;47.980;11.652;2023-04-19T13:35:12;11.90;69.70
50758;DHT22;36732;47.980;11.652;2023-04-19T13:37:37;11.90;69.60
50758;DHT22;36732;47.980;11.652;2023-04-19T13:40:05;11.90;69.50
50758;DHT22;36732;47.980;11.652;2023-04-19T13:42:31;11.90;69.50
50758;DHT22;36732;47.980;11.652;2023-04-19T13:44:57;11.80;69.50
50758;DHT22;36732;47.980;11.652;2023-04-19T13:47:23;11.80;69.40
50758;DHT22;36732;47.980;11.652;2023-04-19T13:49:48;11.80;69.50
50758;DHT22;36732;47.980;11.652;2023-04-19T13:52:20;11.80;69.50
50758;DHT22;36732;47.980;11.652;2023-04-19T13:54:48;11.80;69.50
50758;DHT22;36732;47.980;11.652;2023-04-19T13:57:13;11.70;69.50
50758;DHT22;36732;47.980;11.652;2023-04-19T13:59:39;11.70;69.70
50758;DHT22;36732;47.980;11.652;2023-04-19T14:02:05;11.70;69.90
50758;DHT22;36732;47.980;11.652;2023-04-19T14:04:31;11.70;70.00
50758;DHT22;36732;47.980;11.652;2023-04-19T14:06:57;11.70;70.10
50758;DHT22;36732;47.980;11.652;2023-04-19T14:09:23;11.70;70.10
50758;DHT22;36732;47.980;11.652;2023-04-19T14:11:49;11.70;70.10
50758;DHT22;36732;47.980;11.652;2023-04-19T14:14:15;11.70;70.10
50758;DHT22;36732;47.980;11.652;2023-04-19T14:16:42;11.70;70.20
50758;DHT22;36732;47.980;11.652;2023-04-19T14:19:08;11.70;70.20
50758;DHT22;36732;47.980;11.652;2023-04-19T14:21:33;11.70;70.20
50758;DHT22;36732;47.980;11.652;2023-04-19T14:23:59;11.70;70.40
50758;DHT22;36732;47.980;11.652;2023-04-19T14:26:25;11.70;70.30
50758;DHT22;36732;47.980;11.652;2023-04-19T14:28:51;11.70;70.20
50758;DHT22;36732;47.980;11.652;2023-04-19T14:31:16;11.70;69.90
50758;DHT22;36732;47.980;11.652;2023-04-19T14:33:43;11.70;69.90
50758;DHT22;36732;47.980;11.652;2023-04-19T14:36:08;11.70;70.00
50758;DHT22;36732;47.980;11.652;2023-04-19T14:38:34;11.60;69.80
50758;DHT22;36732;47.980;11.652;2023-04-19T14:41:00;11.60;69.90
50758;DHT22;36732;47.980;11.652;2023-04-19T14:43:28;11.60;69.70
50758;DHT22;36732;47.980;11.652;2023-04-19T14:45:53;11.60;69.50
50758;DHT22;36732;47.980;11.652;2023-04-19T14:48:19;11.60;69.10
50758;DHT22;36732;47.980;11.652;2023-04-19T14:50:45;11.60;68.70
50758;DHT22;36732;47.980;11.652;2023-04-19T14:53:11;11.50;68.50
50758;DHT22;36732;47.980;11.652;2023-04-19T14:55:37;11.50;68.20
50758;DHT22;36732;47.980;11.652;2023-04-19T14:58:03;11.40;68.00
50758;DHT22;36732;47.980;11.652;2023-04-19T15:00:29;11.40;68.10
50758;DHT22;36732;47.980;11.652;2023-04-19T15:02:55;11.40;68.10
50758;DHT22;36732;47.980;11.652;2023-04-19T15:05:21;11.30;68.10
50758;DHT22;36732;47.980;11.652;2023-04-19T15:07:48;11.30;68.20
50758;DHT22;36732;47.980;11.652;2023-04-19T15:10:14;11.30;68.30
50758;DHT22;36732;47.980;11.652;2023-04-19T15:12:39;11.20;68.50
50758;DHT22;36732;47.980;11.652;2023-04-19T15:15:06;11.20;68.70
50758;DHT22;36732;47.980;11.652;2023-04-19T15:17:32;11.20;68.80
50758;DHT22;36732;47.980;11.652;2023-04-19T15:19:58;11.20;68.30
50758;DHT22;36732;47.980;11.652;2023-04-19T15:22:23;11.20;68.20
50758;DHT22;36732;47.980;11.652;2023-04-19T15:24:50;11.20;68.00
50758;DHT22;36732;47.980;11.652;2023-04-19T15:27:15;11.20;67.70
50758;DHT22;36732;47.980;11.652;2023-04-19T15:29:41;11.20;67.70
50758;DHT22;36732;47.980;11.652;2023-04-19T15:32:07;11.10;67.70